Time;durP1;ratioP1;P1;durP2;ratioP2;P2;SDS_P1;SDS_P2;PMS_P1;PMS_P2;Temp;Humidity;BMP_temperature;BMP_pressure;BME280_temperature;BME280_humidity;BME280_pressure;Samples;Min_cycle;Max_cycle;Signal;HPM_P1;HPM_P2
2022/02/07 00:01:40;;;;;;;16.00;15.30;;;3.20;93.70;;;;;;5075452;28;20620;-73
2022/02/07 00:04:08;;;;;;;15.10;14.50;;;3.30;94.20;;;;;;5075410;28;20256;-73
2022/02/07 00:06:35;;;;;;;15.50;14.80;;;3.30;93.90;;;;;;5075387;28;20200;-73
2022/02/07 00:09:02;;;;;;;15.52;14.82;;;3.20;94.10;;;;;;5075199;28;20249;-73
2022/02/07 00:11:29;;;;;;;15.13;14.52;;;3.20;94.60;;;;;;5075262;28;20266;-73
2022/02/07 00:13:56;;;;;;;15.20;14.50;;;3.30;94.60;;;;;;5075205;28;20661;-73
2022/02/07 00:16:22;;;;;;;14.70;14.10;;;3.20;94.40;;;;;;5074985;28;20258;-73
2022/02/07 00:18:54;;;;;;;14.70;14.10;;;3.40;94.30;;;;;;5075089;28;20241;-73
2022/02/07 00:21:21;;;;;;;14.25;13.65;;;3.50;93.50;;;;;;5074779;28;20807;-73
2022/02/07 00:23:48;;;;;;;15.00;14.07;;;3.60;93.00;;;;;;5075143;28;20192;-73
2022/02/07 00:26:15;;;;;;;15.38;14.68;;;3.60;92.90;;;;;;5075301;28;20203;-73
2022/02/07 00:28:41;;;;;;;16.73;15.98;;;3.40;93.40;;;;;;5075082;28;20213;-73
2022/02/07 00:31:08;;;;;;;15.60;14.90;;;3.50;94.10;;;;;;5074785;28;20218;-73
2022/02/07 00:33:35;;;;;;;16.05;15.35;;;3.50;93.00;;;;;;5075048;28;20204;-73
2022/02/07 00:36:04;;;;;;;15.40;14.70;;;3.60;93.50;;;;;;5074928;28;20196;-73
2022/02/07 00:38:31;;;;;;;14.65;13.98;;;3.50;93.30;;;;;;5074934;28;20661;-73
2022/02/07 00:41:16;;;;;;;14.45;13.85;;;3.60;93.20;;;;;;5074546;28;20709;-73
2022/02/07 00:43:46;;;;;;;14.32;13.73;;;3.80;92.70;;;;;;5074818;28;20196;-73
2022/02/07 00:46:20;;;;;;;14.60;13.95;;;3.80;92.80;;;;;;5074596;28;20205;-73
2022/02/07 00:48:49;;;;;;;15.73;14.93;;;3.60;92.50;;;;;;5074617;28;20203;-73
2022/02/07 00:51:17;;;;;;;15.00;14.30;;;3.60;93.10;;;;;;5073728;28;20216;-73
2022/02/07 00:53:44;;;;;;;14.80;14.10;;;3.70;92.80;;;;;;5074616;28;20731;-73
2022/02/07 00:56:11;;;;;;;14.15;13.45;;;3.70;92.20;;;;;;5074335;28;20279;-73
2022/02/07 00:58:38;;;;;;;15.20;14.50;;;3.70;92.30;;;;;;5074489;28;20283;-73
2022/02/07 01:01:05;;;;;;;14.73;14.13;;;3.70;92.40;;;;;;5074114;28;20223;-73
2022/02/07 01:03:32;;;;;;;14.35;13.75;;;3.80;92.20;;;;;;5074609;28;20199;-73
2022/02/07 01:05:59;;;;;;;14.80;14.10;;;3.80;91.90;;;;;;5074300;28;20290;-73
2022/02/07 01:08:37;;;;;;;14.75;14.15;;;3.90;92.10;;;;;;5074261;28;20205;-73
2022/02/07 01:11:11;;;;;;;14.80;14.00;;;4.00;92.00;;;;;;5074111;28;20215;-73
2022/02/07 01:13:55;;;;;;;14.30;13.70;;;4.10;92.20;;;;;;5074194;28;20210;-73
2022/02/07 01:16:44;;;;;;;14.20;13.60;;;4.10;91.20;;;;;;5073740;28;20563;-73
2022/02/07 01:19:32;;;;;;;15.88;15.00;;;4.20;91.10;;;;;;5073857;28;20228;-73
2022/02/07 01:52:45;;;;;;;15.30;14.70;;;4.50;89.70;;;;;;5031478;28;20272;-73
2022/02/07 01:55:18;;;;;;;15.48;14.77;;;4.40;89.60;;;;;;5068284;28;20196;-73
2022/02/07 01:57:48;;;;;;;15.30;14.70;;;4.60;88.80;;;;;;5073223;28;20200;-73
2022/02/07 02:00:17;;;;;;;15.18;14.57;;;4.50;88.80;;;;;;5072933;28;20246;-73
2022/02/07 02:02:44;;;;;;;15.35;14.65;;;4.50;89.10;;;;;;5072753;28;20204;-73
2022/02/07 02:05:11;;;;;;;15.77;14.98;;;4.50;88.60;;;;;;5072547;28;20300;-73
2022/02/07 02:07:40;;;;;;;15.70;14.90;;;4.40;87.50;;;;;;5073041;28;20565;-73
2022/02/07 02:10:09;;;;;;;16.33;15.52;;;4.50;88.00;;;;;;5072692;28;20208;-73
2022/02/07 02:12:44;;;;;;;16.17;15.40;;;4.50;86.10;;;;;;5072916;28;20278;-73
2022/02/07 02:15:32;;;;;;;16.35;15.55;;;4.60;86.60;;;;;;5072859;28;20553;-73
2022/02/07 02:18:40;;;;;;;16.33;15.52;;;4.80;86.20;;;;;;5072804;28;20653;-73
2022/02/07 02:37:57;;;;;;;16.50;15.60;;;5.10;85.00;;;;;;5072721;28;20191;-73
2022/02/07 02:45:53;;;;;;;15.95;15.25;;;4.90;83.80;;;;;;5072693;28;20569;-73
2022/02/07 02:48:23;;;;;;;16.92;16.13;;;5.00;85.60;;;;;;5072451;28;20235;-73
2022/02/07 02:50:53;;;;;;;16.20;15.30;;;4.70;86.10;;;;;;5072269;28;20708;-73
2022/02/07 02:53:20;;;;;;;16.23;15.43;;;4.70;86.80;;;;;;5072450;28;20219;-73
2022/02/07 02:55:50;;;;;;;16.17;15.48;;;4.80;87.50;;;;;;5072443;28;20199;-73
2022/02/07 02:58:20;;;;;;;15.75;15.05;;;4.70;87.30;;;;;;5072357;28;20214;-71
2022/02/07 03:00:49;;;;;;;16.30;15.50;;;4.80;87.50;;;;;;5072136;28;20231;-72
2022/02/07 03:03:16;;;;;;;15.55;14.85;;;4.80;87.10;;;;;;5072311;28;20228;-73
2022/02/07 03:05:45;;;;;;;15.63;14.93;;;4.90;87.60;;;;;;5072490;28;20200;-73
2022/02/07 03:08:13;;;;;;;15.98;15.25;;;4.90;87.50;;;;;;5072432;28;20204;-73
2022/02/07 03:10:52;;;;;;;16.08;15.27;;;5.00;87.60;;;;;;5071961;28;20219;-73
2022/02/07 03:13:43;;;;;;;16.40;15.50;;;4.90;87.70;;;;;;5072421;28;20679;-73
2022/02/07 03:18:55;;;;;;;15.98;15.07;;;4.80;87.50;;;;;;5076539;28;20244;-73
2022/02/07 03:21:21;;;;;;;16.20;15.40;;;4.80;88.40;;;;;;5076004;28;20251;-73
2022/02/07 03:23:51;;;;;;;17.40;16.50;;;4.70;87.00;;;;;;5076533;28;20196;-73
2022/02/07 03:26:19;;;;;;;17.60;16.70;;;4.80;87.30;;;;;;5076489;28;20199;-73
2022/02/07 03:28:48;;;;;;;17.02;16.02;;;4.80;87.60;;;;;;5076253;28;20196;-73
2022/02/07 03:31:16;;;;;;;17.20;16.40;;;4.80;86.90;;;;;;5076562;28;20299;-73
2022/02/07 03:33:43;;;;;;;18.10;17.13;;;4.80;87.30;;;;;;5076266;28;20287;-73
2022/02/07 03:36:10;;;;;;;16.80;15.88;;;4.90;87.00;;;;;;5076627;28;20564;-73
2022/02/07 03:38:37;;;;;;;17.20;16.10;;;4.90;86.70;;;;;;5076699;28;20703;-73
2022/02/07 03:41:05;;;;;;;18.13;16.98;;;4.80;85.60;;;;;;5076202;28;20593;-73
2022/02/07 03:43:32;;;;;;;16.85;15.95;;;4.70;86.50;;;;;;5076004;28;20691;-73
2022/02/07 03:46:01;;;;;;;17.80;16.90;;;4.70;85.30;;;;;;5076005;28;20196;-73
2022/02/07 03:48:28;;;;;;;21.55;20.35;;;4.80;85.50;;;;;;5076129;28;20210;-73
2022/02/07 03:50:55;;;;;;;23.30;22.10;;;4.30;86.90;;;;;;5075528;28;20698;-72
2022/02/07 03:53:23;;;;;;;20.80;19.70;;;3.50;89.70;;;;;;5075746;28;20283;-72
2022/02/07 03:55:51;;;;;;;19.45;18.45;;;2.90;91.70;;;;;;5075604;28;20287;-72
2022/02/07 03:58:21;;;;;;;19.08;18.08;;;2.60;94.30;;;;;;5075588;28;20691;-73
2022/02/07 04:00:48;;;;;;;27.60;26.10;;;2.50;95.50;;;;;;5075447;28;20231;-73
2022/02/07 04:03:18;;;;;;;20.90;19.80;;;2.40;95.50;;;;;;5075606;28;20329;-73
2022/02/07 04:05:49;;;;;;;19.42;18.42;;;2.10;96.00;;;;;;5075425;28;20204;-73
2022/02/07 04:08:17;;;;;;;22.35;21.25;;;2.30;96.10;;;;;;5075416;28;20203;-73
2022/02/07 04:10:56;;;;;;;21.45;20.23;;;2.30;95.30;;;;;;5075085;28;20222;-73
2022/02/07 04:13:28;;;;;;;24.65;22.65;;;2.30;95.40;;;;;;5075526;28;20214;-73
2022/02/07 04:15:56;;;;;;;24.20;21.92;;;2.30;95.50;;;;;;5075202;28;20282;-73
2022/02/07 04:18:26;;;;;;;22.15;20.95;;;2.30;95.20;;;;;;5075192;28;20278;-74
2022/02/07 04:20:53;;;;;;;22.33;21.05;;;2.40;95.00;;;;;;5074766;28;20680;-73
2022/02/07 04:23:21;;;;;;;21.58;20.15;;;2.30;94.70;;;;;;5075338;28;20286;-74
2022/02/07 04:25:47;;;;;;;19.42;18.25;;;2.30;94.20;;;;;;5074542;28;20202;-73
2022/02/07 04:28:15;;;;;;;21.52;20.10;;;2.20;93.80;;;;;;5074710;28;20290;-74
2022/02/07 04:30:42;;;;;;;25.23;24.02;;;2.30;93.50;;;;;;5074894;28;20216;-73
2022/02/07 04:33:09;;;;;;;21.17;19.88;;;2.10;93.00;;;;;;5074759;28;20199;-74
2022/02/07 04:35:37;;;;;;;22.40;21.10;;;2.10;92.70;;;;;;5074941;28;20199;-74
2022/02/07 04:38:04;;;;;;;22.58;21.17;;;2.20;93.20;;;;;;5075095;28;20664;-74
2022/02/07 04:40:31;;;;;;;24.15;22.75;;;2.30;92.60;;;;;;5074612;28;20229;-73
2022/02/07 04:42:58;;;;;;;25.75;24.45;;;2.40;91.80;;;;;;5074947;28;20234;-74
2022/02/07 04:48:34;;;;;;;25.05;23.58;;;2.40;90.90;;;;;;5063948;28;20187;-74
2022/02/07 04:51:36;;;;;;;23.15;21.75;;;2.50;91.80;;;;;;5074384;28;20215;-74
2022/02/07 04:54:15;;;;;;;24.52;23.02;;;2.40;91.10;;;;;;5074313;28;20198;-74
2022/02/07 04:57:07;;;;;;;25.27;23.70;;;2.40;90.40;;;;;;5074671;28;20568;-74
2022/02/07 04:59:43;;;;;;;22.25;21.00;;;2.40;91.00;;;;;;5074478;28;20216;-73
2022/02/07 05:02:17;;;;;;;21.63;20.42;;;2.40;91.10;;;;;;5074505;28;20216;-73
2022/02/07 05:04:51;;;;;;;26.73;25.10;;;2.30;90.60;;;;;;5074510;28;20233;-74
2022/02/07 05:15:33;;;;;;;25.52;23.65;;;2.40;90.50;;;;;;5074294;28;20195;-74
2022/02/07 05:18:00;;;;;;;21.50;20.20;;;2.40;90.30;;;;;;5074204;28;20207;-74
2022/02/07 05:20:27;;;;;;;20.88;19.48;;;2.40;89.70;;;;;;5073713;28;20227;-74
2022/02/07 05:22:55;;;;;;;22.35;21.15;;;2.40;88.80;;;;;;5074026;28;20595;-74
2022/02/07 05:25:22;;;;;;;24.85;23.25;;;2.60;88.80;;;;;;5074031;28;20196;-74
2022/02/07 05:27:50;;;;;;;22.35;20.83;;;2.50;88.20;;;;;;5073976;28;20198;-74
2022/02/07 05:30:17;;;;;;;21.88;20.50;;;2.60;88.10;;;;;;5073661;28;20216;-72
2022/02/07 05:32:44;;;;;;;24.85;23.40;;;2.60;88.20;;;;;;5073879;28;20294;-72
2022/02/07 05:35:11;;;;;;;23.08;21.58;;;2.70;88.20;;;;;;5073663;28;20282;-72
2022/02/07 05:37:38;;;;;;;23.30;21.80;;;2.80;87.80;;;;;;5073387;28;20209;-72
2022/02/07 05:40:08;;;;;;;22.15;20.70;;;2.90;87.20;;;;;;5073321;28;20219;-72
2022/02/07 05:42:37;;;;;;;25.80;24.05;;;2.80;87.00;;;;;;5073556;28;20310;-72
2022/02/07 05:45:06;;;;;;;22.38;20.85;;;2.70;87.40;;;;;;5073473;28;20706;-72
2022/02/07 05:47:34;;;;;;;21.85;20.30;;;2.70;86.70;;;;;;5073517;28;20207;-72
2022/02/07 05:50:00;;;;;;;22.05;20.52;;;2.80;87.20;;;;;;5073309;28;20279;-74
2022/02/07 05:52:27;;;;;;;23.15;21.45;;;2.80;86.40;;;;;;5073616;28;20192;-75
2022/02/07 05:54:54;;;;;;;24.88;23.20;;;2.80;87.30;;;;;;5073392;28;20202;-75
2022/02/07 05:57:23;;;;;;;23.15;21.65;;;2.90;87.00;;;;;;5073199;28;20200;-72
2022/02/07 05:59:50;;;;;;;20.95;19.75;;;3.00;86.40;;;;;;5072967;28;20756;-72
2022/02/07 06:02:17;;;;;;;23.67;22.35;;;3.00;87.60;;;;;;5073462;28;20216;-72
2022/02/07 06:04:45;;;;;;;21.88;20.20;;;3.10;87.10;;;;;;5073117;28;20214;-72
2022/02/07 06:07:12;;;;;;;22.38;20.60;;;3.20;86.40;;;;;;5073202;28;20231;-72
2022/02/07 06:09:39;;;;;;;22.75;21.30;;;3.10;86.20;;;;;;5072900;28;20249;-72
2022/02/07 06:12:08;;;;;;;23.92;21.92;;;3.10;86.50;;;;;;5072902;28;20244;-72
2022/02/07 06:14:36;;;;;;;24.60;23.00;;;3.00;86.20;;;;;;5072806;28;20303;-72
2022/02/07 06:17:04;;;;;;;25.00;23.60;;;3.10;86.60;;;;;;5072455;28;20246;-72
2022/02/07 06:19:30;;;;;;;26.58;25.10;;;3.10;85.20;;;;;;5072656;28;20196;-72
2022/02/07 06:21:57;;;;;;;22.77;21.08;;;3.10;84.80;;;;;;5072628;28;20920;-72
2022/02/07 06:24:25;;;;;;;24.13;22.83;;;3.10;85.10;;;;;;5072640;28;20286;-72
2022/02/07 06:26:52;;;;;;;24.77;23.15;;;3.20;85.60;;;;;;5072841;28;20281;-72
2022/02/07 06:29:18;;;;;;;22.50;20.98;;;3.30;85.70;;;;;;5072712;28;20192;-72
2022/02/07 06:31:47;;;;;;;25.33;23.17;;;3.30;85.90;;;;;;5072686;28;20218;-72
2022/02/07 06:34:14;;;;;;;26.33;24.50;;;3.40;86.60;;;;;;5072737;28;20196;-72
2022/02/07 06:36:41;;;;;;;23.13;21.52;;;3.40;86.40;;;;;;5072653;28;20286;-72
2022/02/07 06:39:08;;;;;;;25.85;24.35;;;3.30;86.10;;;;;;5072572;28;20247;-72
2022/02/07 06:41:35;;;;;;;21.05;19.60;;;3.30;86.20;;;;;;5072432;28;20227;-72
2022/02/07 06:44:02;;;;;;;21.98;20.58;;;3.30;86.60;;;;;;5072416;28;20192;-72
2022/02/07 06:46:29;;;;;;;24.60;22.90;;;3.30;86.90;;;;;;5072438;28;20688;-72
2022/02/07 06:48:57;;;;;;;23.42;21.80;;;3.30;86.00;;;;;;5072053;28;20282;-72
2022/02/07 06:51:24;;;;;;;22.65;21.15;;;3.30;86.00;;;;;;5072183;28;20298;-72
2022/02/07 06:53:51;;;;;;;25.23;23.80;;;3.40;86.00;;;;;;5072428;28;20231;-71
2022/02/07 06:56:20;;;;;;;25.70;24.17;;;3.40;85.90;;;;;;5072282;28;20648;-71
2022/02/07 06:58:47;;;;;;;26.67;25.08;;;3.50;84.80;;;;;;5072421;28;20196;-75
2022/02/07 07:01:14;;;;;;;26.75;24.95;;;3.50;84.90;;;;;;5072062;28;20272;-73
2022/02/07 07:03:44;;;;;;;21.42;20.13;;;3.50;85.10;;;;;;5072522;28;20576;-74
2022/02/07 07:06:13;;;;;;;25.38;23.75;;;3.50;85.20;;;;;;5072796;28;20195;-74
2022/02/07 07:08:44;;;;;;;23.40;21.65;;;3.50;84.40;;;;;;5072356;28;20230;-74
2022/02/07 07:11:14;;;;;;;23.33;21.85;;;3.60;84.90;;;;;;5072124;28;20212;-74
2022/02/07 07:13:46;;;;;;;23.35;21.73;;;3.60;84.70;;;;;;5072223;28;20231;-74
2022/02/07 07:16:36;;;;;;;23.55;22.05;;;3.60;85.00;;;;;;5072174;28;20235;-74
2022/02/07 07:19:04;;;;;;;23.95;22.40;;;3.70;84.10;;;;;;5072132;28;20195;-74
2022/02/07 07:21:32;;;;;;;24.27;22.48;;;3.70;84.10;;;;;;5071849;28;20231;-71
2022/02/07 07:24:00;;;;;;;22.98;21.10;;;3.80;84.10;;;;;;5072199;28;20286;-71
2022/02/07 07:26:30;;;;;;;23.08;21.58;;;3.80;84.40;;;;;;5071961;28;20195;-71
2022/02/07 07:28:58;;;;;;;22.65;21.10;;;3.80;84.50;;;;;;5072104;28;20200;-73
2022/02/07 07:31:26;;;;;;;21.02;19.80;;;3.80;84.80;;;;;;5071892;28;20222;-72
2022/02/07 07:33:54;;;;;;;22.27;20.48;;;3.90;84.70;;;;;;5072015;28;20252;-72
2022/02/07 07:36:22;;;;;;;24.02;22.42;;;3.90;84.90;;;;;;5071855;28;20199;-72
2022/02/07 07:38:50;;;;;;;23.45;21.77;;;4.00;84.50;;;;;;5071910;28;20196;-72
2022/02/07 07:41:18;;;;;;;24.90;23.20;;;4.00;83.60;;;;;;5071699;28;20247;-72
2022/02/07 07:43:48;;;;;;;21.67;20.38;;;4.00;83.40;;;;;;5072104;28;20199;-73
2022/02/07 07:46:17;;;;;;;24.65;22.95;;;4.00;83.90;;;;;;5071881;28;20665;-73
2022/02/07 07:48:51;;;;;;;22.35;20.85;;;4.10;83.10;;;;;;5071783;28;20286;-72
2022/02/07 07:51:33;;;;;;;24.98;23.30;;;4.10;84.10;;;;;;5071786;28;20307;-72
2022/02/07 08:02:12;;;;;;;25.38;23.33;;;4.00;83.00;;;;;;5075083;28;20222;-72
2022/02/07 08:04:41;;;;;;;25.65;23.55;;;4.10;82.60;;;;;;5075313;28;20199;-72
2022/02/07 08:07:14;;;;;;;25.75;23.25;;;4.00;82.40;;;;;;5075467;28;20207;-72
2022/02/07 08:09:59;;;;;;;23.75;22.10;;;4.10;82.70;;;;;;5075203;28;20200;-73
2022/02/07 08:12:26;;;;;;;25.42;23.77;;;4.10;82.80;;;;;;5075289;28;20605;-72
2022/02/07 08:14:53;;;;;;;22.30;20.92;;;4.10;81.80;;;;;;5075310;28;20676;-73
2022/02/07 08:17:21;;;;;;;26.08;24.40;;;4.10;81.90;;;;;;5074844;28;20200;-73
2022/02/07 08:19:49;;;;;;;24.40;22.70;;;4.10;81.80;;;;;;5074898;28;20253;-73
2022/02/07 08:22:16;;;;;;;23.67;22.20;;;4.20;81.70;;;;;;5074825;28;20239;-72
2022/02/07 08:24:44;;;;;;;24.95;23.35;;;4.20;81.70;;;;;;5075028;28;20657;-73
2022/02/07 08:27:11;;;;;;;23.63;21.88;;;4.20;81.30;;;;;;5075222;28;20284;-72
2022/02/07 08:29:38;;;;;;;25.75;24.10;;;4.30;81.20;;;;;;5074847;28;20633;-72
2022/02/07 08:32:06;;;;;;;22.13;20.77;;;4.20;80.60;;;;;;5075019;28;20216;-72
2022/02/07 08:34:34;;;;;;;26.83;25.15;;;4.20;80.70;;;;;;5074823;28;20283;-72
2022/02/07 08:37:02;;;;;;;23.17;21.58;;;4.20;80.60;;;;;;5074958;28;20226;-72
2022/02/07 08:39:29;;;;;;;24.52;22.75;;;4.30;80.90;;;;;;5075237;28;20192;-72
2022/02/07 08:41:58;;;;;;;24.90;23.20;;;4.40;80.60;;;;;;5074680;28;20223;-72
2022/02/07 08:44:26;;;;;;;25.08;23.27;;;4.40;80.30;;;;;;5074580;28;20200;-72
2022/02/07 08:46:53;;;;;;;22.98;21.35;;;4.40;79.80;;;;;;5074814;28;20196;-72
2022/02/07 08:49:20;;;;;;;22.10;20.73;;;4.40;79.90;;;;;;5074632;28;20286;-72
2022/02/07 08:51:47;;;;;;;23.73;22.23;;;4.50;80.10;;;;;;5074671;28;20243;-72
2022/02/07 08:54:20;;;;;;;22.48;20.63;;;4.70;79.50;;;;;;5074924;28;20565;-72
2022/02/07 08:56:51;;;;;;;24.67;23.25;;;4.90;78.80;;;;;;5074642;28;20200;-72
2022/02/07 08:59:26;;;;;;;24.88;23.48;;;5.10;78.70;;;;;;5074465;28;20203;-72
2022/02/07 09:02:05;;;;;;;22.95;21.45;;;5.20;77.50;;;;;;5074549;28;20215;-72
2022/02/07 09:04:55;;;;;;;23.73;22.23;;;5.10;74.30;;;;;;5074532;28;20196;-72
2022/02/07 09:07:26;;;;;;;23.48;22.02;;;5.00;76.60;;;;;;5074345;28;20200;-72
2022/02/07 09:09:54;;;;;;;23.55;22.05;;;5.30;76.80;;;;;;5073937;28;20600;-72
2022/02/07 09:12:21;;;;;;;21.83;20.33;;;5.50;76.20;;;;;;5073608;28;20258;-72
2022/02/07 09:14:59;;;;;;;22.63;21.02;;;5.70;76.00;;;;;;5074028;28;20302;-72
2022/02/07 09:17:26;;;;;;;23.13;21.73;;;5.80;75.80;;;;;;5073935;28;20301;-72
2022/02/07 09:19:53;;;;;;;23.52;21.75;;;5.80;74.70;;;;;;5073872;28;20198;-72
2022/02/07 09:22:20;;;;;;;24.42;22.80;;;5.80;74.70;;;;;;5073849;28;20307;-73
2022/02/07 09:24:47;;;;;;;22.52;21.02;;;5.80;74.50;;;;;;5073833;28;20680;-72
2022/02/07 09:27:14;;;;;;;23.50;21.80;;;5.70;74.20;;;;;;5073912;28;20654;-73
2022/02/07 09:29:41;;;;;;;24.02;22.35;;;5.80;74.60;;;;;;5073845;28;20283;-73
2022/02/07 09:32:10;;;;;;;25.27;23.58;;;5.70;75.20;;;;;;5073916;28;20219;-72
2022/02/07 09:34:37;;;;;;;21.83;20.50;;;5.80;73.30;;;;;;5073713;28;20299;-72
2022/02/07 09:37:04;;;;;;;25.73;24.00;;;6.00;73.80;;;;;;5073702;28;20231;-73
2022/02/07 09:39:31;;;;;;;22.27;20.80;;;5.90;72.30;;;;;;5073530;28;20680;-72
2022/02/07 09:42:00;;;;;;;23.00;21.45;;;5.90;73.20;;;;;;5073540;28;20628;-72
2022/02/07 09:44:39;;;;;;;25.05;23.55;;;6.10;73.10;;;;;;5073526;28;20641;-72
2022/02/07 09:47:09;;;;;;;24.45;23.05;;;5.90;72.20;;;;;;5073466;28;20233;-73
2022/02/07 09:49:36;;;;;;;25.75;24.30;;;6.00;72.60;;;;;;5073398;28;20230;-72
2022/02/07 09:52:04;;;;;;;23.95;22.45;;;6.20;72.90;;;;;;5073511;28;20212;-72
2022/02/07 09:54:31;;;;;;;23.30;21.70;;;6.20;72.30;;;;;;5073331;28;20197;-72
2022/02/07 09:56:59;;;;;;;21.92;20.38;;;6.30;72.30;;;;;;5073287;28;20200;-72
2022/02/07 09:59:29;;;;;;;24.15;22.65;;;6.40;72.00;;;;;;5073105;28;20200;-72
2022/02/07 10:01:59;;;;;;;23.20;21.67;;;6.50;71.20;;;;;;5073127;28;20223;-72
2022/02/07 10:04:33;;;;;;;22.90;21.33;;;6.60;70.40;;;;;;5073090;28;20208;-73
2022/02/07 10:07:14;;;;;;;23.25;21.73;;;6.70;71.00;;;;;;5073005;28;20195;-73
2022/02/07 10:09:54;;;;;;;22.58;20.90;;;6.70;70.90;;;;;;5072761;28;20275;-72
2022/02/07 10:12:43;;;;;;;23.52;22.13;;;6.70;70.30;;;;;;5073159;28;20227;-72
2022/02/07 10:18:16;;;;;;;22.80;21.13;;;6.80;68.40;;;;;;5072495;28;20198;-73
2022/02/07 10:35:42;;;;;;;23.65;22.02;;;6.20;69.90;;;;;;5072768;28;20260;-73
2022/02/07 10:38:24;;;;;;;25.52;23.13;;;6.30;70.30;;;;;;5072802;28;20204;-73
2022/02/07 10:41:20;;;;;;;23.25;21.48;;;6.60;70.30;;;;;;5072405;28;20222;-72
2022/02/07 10:44:00;;;;;;;23.77;21.95;;;6.60;68.60;;;;;;5072496;28;20269;-73
2022/02/07 10:46:32;;;;;;;22.67;21.27;;;6.90;69.80;;;;;;5072545;28;20207;-73
2022/02/07 10:48:59;;;;;;;23.70;22.00;;;7.00;68.00;;;;;;5072467;28;20196;-72
2022/02/07 10:51:27;;;;;;;22.25;20.83;;;7.20;68.50;;;;;;5072334;28;20291;-73
2022/02/07 10:53:57;;;;;;;23.40;21.90;;;7.20;67.40;;;;;;5072396;28;20280;-73
2022/02/07 10:56:31;;;;;;;23.67;21.75;;;7.20;68.30;;;;;;5072321;28;20200;-72
2022/02/07 10:58:58;;;;;;;22.20;20.80;;;7.20;66.70;;;;;;5072323;28;20635;-72
2022/02/07 11:01:37;;;;;;;24.20;22.75;;;6.90;66.20;;;;;;5072149;28;20307;-72
2022/02/07 11:04:11;;;;;;;23.55;21.95;;;6.90;67.50;;;;;;5072270;28;20640;-73
2022/02/07 11:06:39;;;;;;;23.27;21.77;;;7.10;66.90;;;;;;5072170;28;20685;-72
2022/02/07 11:09:18;;;;;;;23.23;21.83;;;7.30;66.60;;;;;;5072041;28;20200;-72
2022/02/07 11:12:08;;;;;;;22.65;21.10;;;7.40;65.80;;;;;;5072181;28;20227;-73
2022/02/07 11:14:47;;;;;;;23.20;21.80;;;7.60;65.00;;;;;;5072227;28;20207;-72
2022/02/07 11:17:52;;;;;;;23.38;21.80;;;7.30;64.00;;;;;;5071969;28;20201;-72
2022/02/07 11:20:35;;;;;;;22.52;21.20;;;7.20;66.00;;;;;;5072034;28;20246;-72
2022/02/07 11:23:15;;;;;;;23.42;22.08;;;7.40;66.20;;;;;;5072091;28;20255;-72
2022/02/07 11:25:49;;;;;;;23.10;21.58;;;7.30;64.60;;;;;;5071878;28;20211;-72
2022/02/07 11:28:22;;;;;;;23.17;21.48;;;7.00;65.40;;;;;;5072087;28;20657;-72
2022/02/07 11:30:53;;;;;;;25.25;23.35;;;6.90;66.20;;;;;;5071910;28;20220;-72
2022/02/07 11:33:48;;;;;;;23.63;21.83;;;6.90;66.10;;;;;;5072037;28;20192;-72
2022/02/07 11:36:23;;;;;;;23.48;21.52;;;7.00;66.70;;;;;;5074069;28;20566;-72
2022/02/07 11:38:58;;;;;;;22.40;20.80;;;7.00;65.80;;;;;;5076047;28;20195;-72
2022/02/07 11:41:26;;;;;;;22.05;20.45;;;6.90;64.60;;;;;;5075689;28;20726;-72
2022/02/07 11:43:54;;;;;;;22.45;20.88;;;6.80;66.40;;;;;;5075938;28;20651;-72
2022/02/07 11:46:22;;;;;;;23.65;21.80;;;6.80;65.80;;;;;;5075785;28;20534;-71
2022/02/07 11:48:53;;;;;;;22.52;21.13;;;6.70;65.60;;;;;;5075732;28;20196;-72
2022/02/07 11:51:24;;;;;;;23.52;22.02;;;6.60;66.40;;;;;;5075670;28;20280;-72
2022/02/07 11:53:53;;;;;;;24.27;22.52;;;6.70;67.30;;;;;;5075789;28;20711;-72
2022/02/07 11:56:25;;;;;;;23.30;21.70;;;6.50;66.90;;;;;;5075692;28;20227;-72
2022/02/07 11:59:28;;;;;;;22.10;20.52;;;6.60;67.70;;;;;;5075581;28;20279;-72
2022/02/07 12:02:01;;;;;;;25.52;23.83;;;6.70;67.60;;;;;;5075541;28;20700;-72
2022/02/07 12:04:31;;;;;;;23.33;21.52;;;6.70;66.90;;;;;;5075548;28;20216;-72
2022/02/07 12:07:20;;;;;;;24.77;22.90;;;6.60;66.20;;;;;;5075520;28;20262;-72
2022/02/07 12:10:06;;;;;;;23.77;22.17;;;6.50;66.80;;;;;;5075058;28;20200;-72
2022/02/07 12:12:46;;;;;;;23.48;22.17;;;6.60;66.80;;;;;;5074873;28;20196;-72
2022/02/07 12:15:21;;;;;;;23.95;22.55;;;6.60;66.60;;;;;;5075257;28;20272;-72
2022/02/07 12:17:49;;;;;;;24.67;23.17;;;6.60;66.90;;;;;;5075023;28;20207;-72
2022/02/07 12:20:19;;;;;;;23.02;21.52;;;6.60;66.20;;;;;;5074880;28;20223;-71
2022/02/07 12:22:51;;;;;;;23.85;22.05;;;6.40;66.70;;;;;;5074904;28;20211;-72
2022/02/07 12:25:23;;;;;;;25.05;23.33;;;6.60;67.60;;;;;;5075017;28;20200;-72
2022/02/07 12:27:50;;;;;;;25.23;23.83;;;6.60;66.30;;;;;;5075151;28;20192;-72
2022/02/07 12:30:30;;;;;;;23.75;21.80;;;6.80;66.60;;;;;;5074757;28;20215;-72
2022/02/07 12:32:57;;;;;;;25.20;23.15;;;6.90;66.30;;;;;;5075116;28;20199;-72
2022/02/07 12:35:24;;;;;;;23.63;22.02;;;6.80;66.40;;;;;;5074717;28;20218;-72
2022/02/07 12:37:53;;;;;;;25.45;23.50;;;7.00;66.40;;;;;;5074870;28;20200;-71
2022/02/07 12:40:20;;;;;;;25.48;23.85;;;7.20;65.90;;;;;;5074496;28;20215;-71
2022/02/07 12:42:47;;;;;;;25.30;23.73;;;7.30;66.10;;;;;;5074825;28;20574;-72
2022/02/07 12:45:14;;;;;;;25.35;23.83;;;7.10;65.70;;;;;;5074567;28;20198;-72
2022/02/07 12:47:49;;;;;;;25.25;23.75;;;7.10;65.50;;;;;;5073535;28;20208;-72
2022/02/07 12:50:18;;;;;;;23.75;22.08;;;7.20;66.40;;;;;;5074486;28;20303;-72
2022/02/07 12:52:45;;;;;;;25.25;23.50;;;7.20;65.00;;;;;;5074616;28;20255;-72
2022/02/07 12:55:14;;;;;;;25.15;23.65;;;7.20;65.80;;;;;;5074294;28;20220;-72
2022/02/07 12:57:41;;;;;;;23.85;22.38;;;7.30;66.60;;;;;;5074484;28;20205;-72
2022/02/07 13:00:11;;;;;;;25.00;22.90;;;7.30;66.30;;;;;;5074101;28;20216;-72
2022/02/07 13:02:44;;;;;;;26.50;24.17;;;7.40;66.40;;;;;;5074262;28;20666;-72
2022/02/07 13:05:11;;;;;;;26.67;25.08;;;7.30;66.50;;;;;;5074257;28;20199;-72
2022/02/07 13:07:45;;;;;;;25.48;23.63;;;7.10;66.30;;;;;;5074204;28;20569;-72
2022/02/07 13:10:13;;;;;;;24.65;22.95;;;6.80;67.10;;;;;;5073955;28;20564;-71
2022/02/07 13:12:53;;;;;;;24.10;22.52;;;6.70;68.10;;;;;;5074181;28;20222;-72
2022/02/07 13:15:23;;;;;;;25.05;23.55;;;6.70;68.80;;;;;;5074061;28;20538;-72
2022/02/07 13:17:53;;;;;;;24.95;23.00;;;6.90;68.60;;;;;;5073772;28;20201;-72
2022/02/07 13:20:21;;;;;;;24.30;22.80;;;7.00;68.20;;;;;;5073676;28;20216;-72
2022/02/07 13:23:00;;;;;;;23.00;21.63;;;7.10;68.40;;;;;;5073688;28;20203;-72
2022/02/07 13:25:38;;;;;;;24.83;23.33;;;7.10;68.10;;;;;;5074017;28;20197;-72
2022/02/07 13:28:05;;;;;;;26.15;24.27;;;7.10;68.20;;;;;;5073827;28;20200;-72
2022/02/07 13:30:32;;;;;;;24.02;22.42;;;7.10;67.90;;;;;;5073523;28;20212;-72
2022/02/07 13:33:00;;;;;;;25.27;23.38;;;7.00;68.40;;;;;;5073691;28;20189;-72
2022/02/07 13:35:37;;;;;;;24.75;23.25;;;6.90;68.40;;;;;;5073670;28;20287;-72
2022/02/07 13:38:06;;;;;;;24.52;22.83;;;7.00;68.80;;;;;;5073645;28;20285;-71
2022/02/07 13:40:40;;;;;;;24.45;22.70;;;7.10;69.20;;;;;;5073241;28;20220;-72
2022/02/07 13:43:10;;;;;;;24.15;22.65;;;7.30;69.10;;;;;;5073440;28;20216;-72
2022/02/07 13:45:37;;;;;;;25.70;24.20;;;7.40;67.90;;;;;;5073611;28;20703;-72
2022/02/07 13:48:06;;;;;;;24.70;23.30;;;7.60;67.90;;;;;;5073928;28;20629;-72
2022/02/07 13:50:36;;;;;;;24.63;22.50;;;7.60;68.00;;;;;;5073204;28;20642;-72
2022/02/07 13:53:05;;;;;;;23.20;21.70;;;7.70;68.10;;;;;;5073419;28;20666;-72
2022/02/07 13:55:37;;;;;;;23.35;21.63;;;7.80;67.80;;;;;;5073282;28;20677;-72
2022/02/07 13:58:06;;;;;;;23.38;21.77;;;7.80;66.70;;;;;;5073158;28;20259;-72
2022/02/07 14:00:36;;;;;;;23.40;21.90;;;7.80;66.80;;;;;;5072955;28;20239;-72
2022/02/07 14:03:13;;;;;;;23.42;21.73;;;7.70;66.40;;;;;;5073162;28;20208;-72
2022/02/07 14:05:42;;;;;;;22.30;21.02;;;7.50;67.30;;;;;;5073046;28;20669;-72
2022/02/07 14:08:10;;;;;;;21.85;20.65;;;7.30;68.20;;;;;;5073017;28;20196;-72
2022/02/07 14:10:38;;;;;;;23.05;21.60;;;7.30;67.80;;;;;;5072864;28;20216;-72
2022/02/07 14:13:07;;;;;;;23.00;21.27;;;7.30;67.80;;;;;;5072930;28;20211;-72
2022/02/07 14:15:34;;;;;;;23.33;21.55;;;7.10;67.50;;;;;;5072743;28;20732;-72
2022/02/07 14:18:04;;;;;;;21.92;20.38;;;7.20;68.00;;;;;;5072695;28;20223;-72
2022/02/07 14:20:34;;;;;;;23.45;22.00;;;7.20;68.00;;;;;;5072636;28;20263;-71
2022/02/07 14:23:01;;;;;;;21.95;20.70;;;7.20;67.80;;;;;;5072746;28;20203;-72
2022/02/07 14:25:29;;;;;;;21.70;20.40;;;7.10;68.30;;;;;;5073138;28;20191;-72
2022/02/07 14:27:57;;;;;;;23.15;21.45;;;7.10;68.20;;;;;;5073123;28;20283;-72